Time;durP1;ratioP1;P1;durP2;ratioP2;P2;SDS_P1;SDS_P2;PMS_P1;PMS_P2;Temp;Humidity;BMP_temperature;BMP_pressure;BME280_temperature;BME280_humidity;BME280_pressure;Samples;Min_cycle;Max_cycle;Signal;HPM_P1;HPM_P2
2021/09/07 00:00:24;;;;;;;11.80;6.57;;;;;;;;;;4937904;29;20421;-88
2021/09/07 00:03:16;;;;;;;20.70;7.15;;;;;;;;;;4968685;28;20046;-90
2021/09/07 00:05:41;;;;;;;20.83;7.18;;;;;;;;;;4936857;29;20096;-90
2021/09/07 00:08:23;;;;;;;18.17;7.82;;;;;;;;;;4982323;28;20047;-88
2021/09/07 00:10:49;;;;;;;19.90;7.80;;;;;;;;;;4949251;28;20051;-90
2021/09/07 00:13:17;;;;;;;15.52;6.63;;;;;;;;;;4968588;28;20027;-90
2021/09/07 00:15:43;;;;;;;18.17;7.10;;;;;;;;;;4968849;28;20113;-88
2021/09/07 00:18:08;;;;;;;14.60;8.10;;;;;;;;;;4952437;28;20039;-87
2021/09/07 00:20:45;;;;;;;15.07;6.88;;;;;;;;;;4968907;28;20035;-90
2021/09/07 00:23:11;;;;;;;19.13;6.95;;;;;;;;;;4981747;28;20038;-90
2021/09/07 00:25:42;;;;;;;17.77;6.85;;;;;;;;;;4981381;28;20122;-88
2021/09/07 00:28:08;;;;;;;13.10;6.53;;;;;;;;;;4952082;29;20039;-87
2021/09/07 00:30:34;;;;;;;12.82;6.72;;;;;;;;;;4959701;28;20077;-87
2021/09/07 00:33:08;;;;;;;17.42;7.18;;;;;;;;;;4963010;29;20051;-89
2021/09/07 00:35:33;;;;;;;17.35;7.50;;;;;;;;;;4969654;28;20450;-88
2021/09/07 00:37:59;;;;;;;13.68;7.28;;;;;;;;;;4939849;29;20202;-89
2021/09/07 00:40:53;;;;;;;15.85;6.90;;;;;;;;;;4953147;28;20410;-90
2021/09/07 00:43:19;;;;;;;14.83;6.97;;;;;;;;;;4946215;29;20038;-87
2021/09/07 00:45:45;;;;;;;17.58;7.35;;;;;;;;;;4950341;28;20039;-88
2021/09/07 00:48:16;;;;;;;20.77;7.72;;;;;;;;;;4996195;28;20050;-87
2021/09/07 00:50:43;;;;;;;11.27;6.50;;;;;;;;;;4958439;28;20027;-90
2021/09/07 00:53:17;;;;;;;16.92;7.15;;;;;;;;;;4963068;28;20043;-90
2021/09/07 00:55:45;;;;;;;14.40;7.60;;;;;;;;;;4941809;29;20038;-91
2021/09/07 00:58:29;;;;;;;23.27;8.15;;;;;;;;;;4984617;28;20121;-87
2021/09/07 01:01:08;;;;;;;13.07;6.95;;;;;;;;;;4954385;29;20050;-87
2021/09/07 01:03:41;;;;;;;18.40;7.80;;;;;;;;;;4959317;28;20031;-88
2021/09/07 01:06:06;;;;;;;19.65;7.55;;;;;;;;;;4974035;28;20031;-87
2021/09/07 01:08:32;;;;;;;15.68;7.28;;;;;;;;;;4960037;28;20058;-88
2021/09/07 01:11:05;;;;;;;13.85;7.90;;;;;;;;;;4960134;28;20031;-88
2021/09/07 01:13:32;;;;;;;20.02;7.70;;;;;;;;;;4981664;28;20019;-89
2021/09/07 01:16:08;;;;;;;15.10;7.90;;;;;;;;;;4969304;28;20031;-89
2021/09/07 01:18:34;;;;;;;15.23;7.78;;;;;;;;;;4952320;28;20027;-91
2021/09/07 01:21:14;;;;;;;16.38;7.68;;;;;;;;;;4982148;28;20045;-89
2021/09/07 01:23:49;;;;;;;17.42;8.40;;;;;;;;;;4981543;28;20095;-90
2021/09/07 01:26:16;;;;;;;14.90;7.50;;;;;;;;;;4937503;29;20031;-88
2021/09/07 01:28:42;;;;;;;14.90;7.43;;;;;;;;;;4947956;28;20035;-89
2021/09/07 01:31:16;;;;;;;14.48;7.45;;;;;;;;;;4935778;29;20038;-89
2021/09/07 01:33:42;;;;;;;17.80;8.20;;;;;;;;;;4952527;28;20031;-88
2021/09/07 01:36:17;;;;;;;16.35;8.20;;;;;;;;;;4951088;28;20350;-88
2021/09/07 01:38:45;;;;;;;15.13;8.00;;;;;;;;;;4936740;28;20028;-87
2021/09/07 01:41:14;;;;;;;17.05;8.30;;;;;;;;;;4979562;28;21913;-90
2021/09/07 01:44:01;;;;;;;13.63;8.13;;;;;;;;;;4952371;29;20035;-88
2021/09/07 01:46:26;;;;;;;13.35;7.78;;;;;;;;;;4968850;28;20023;-91
2021/09/07 01:49:02;;;;;;;16.27;8.10;;;;;;;;;;4953218;28;20358;-87
2021/09/07 01:51:27;;;;;;;19.75;8.85;;;;;;;;;;4953662;29;20031;-88
2021/09/07 01:53:59;;;;;;;23.15;8.07;;;;;;;;;;4970422;28;20406;-90
2021/09/07 01:56:24;;;;;;;18.80;8.85;;;;;;;;;;4954014;28;20449;-90
2021/09/07 01:58:50;;;;;;;15.55;8.23;;;;;;;;;;4957075;29;20110;-90
2021/09/07 02:01:22;;;;;;;25.67;8.52;;;;;;;;;;4959527;29;20476;-89
2021/09/07 02:03:48;;;;;;;14.73;8.35;;;;;;;;;;4942532;29;20027;-87
2021/09/07 02:06:14;;;;;;;16.40;8.70;;;;;;;;;;4935500;29;20042;-90
2021/09/07 02:08:48;;;;;;;15.10;9.15;;;;;;;;;;4949178;28;20047;-89
2021/09/07 02:11:14;;;;;;;;;;;;;;;;;;4963815;28;20058;-87
2021/09/07 02:13:39;;;;;;;17.98;8.55;;;;;;;;;;4979215;28;20395;-90
2021/09/07 02:16:07;;;;;;;17.02;9.65;;;;;;;;;;4971909;28;20035;-90
2021/09/07 02:18:33;;;;;;;17.48;8.98;;;;;;;;;;4954548;29;20093;-90
2021/09/07 02:20:59;;;;;;;17.30;9.07;;;;;;;;;;4952647;29;20035;-91
2021/09/07 02:23:24;;;;;;;23.60;9.73;;;;;;;;;;4952664;29;20049;-88
2021/09/07 02:25:52;;;;;;;15.02;8.60;;;;;;;;;;4982013;28;20023;-86
2021/09/07 02:28:18;;;;;;;17.23;9.35;;;;;;;;;;4967557;28;20114;-88
2021/09/07 02:30:43;;;;;;;17.17;9.77;;;;;;;;;;4938307;29;20179;-89
2021/09/07 02:33:09;;;;;;;17.67;9.50;;;;;;;;;;4971286;28;20049;-89
2021/09/07 02:35:43;;;;;;;22.75;8.82;;;;;;;;;;4971291;28;20081;-88
2021/09/07 02:38:09;;;;;;;17.33;8.50;;;;;;;;;;4954210;28;20043;-90
2021/09/07 02:40:43;;;;;;;14.18;8.95;;;;;;;;;;4982877;28;20035;-88
2021/09/07 02:43:08;;;;;;;18.65;9.68;;;;;;;;;;4935794;29;20629;-89
2021/09/07 02:45:43;;;;;;;18.40;8.55;;;;;;;;;;4981512;28;20094;-89
2021/09/07 02:48:09;;;;;;;16.63;9.40;;;;;;;;;;4951887;29;20031;-90
2021/09/07 02:50:35;;;;;;;19.05;8.35;;;;;;;;;;4983793;28;20094;-88
2021/09/07 02:53:05;;;;;;;17.42;8.82;;;;;;;;;;4983378;28;20035;-91
2021/09/07 02:55:30;;;;;;;18.15;9.07;;;;;;;;;;4985434;28;20667;-89
2021/09/07 02:57:56;;;;;;;20.73;9.23;;;;;;;;;;4936503;29;20054;-87
2021/09/07 03:00:30;;;;;;;14.02;8.00;;;;;;;;;;4970753;28;20035;-88
2021/09/07 03:02:55;;;;;;;17.05;8.75;;;;;;;;;;4940763;29;20388;-91
2021/09/07 03:05:21;;;;;;;17.02;8.77;;;;;;;;;;4953727;28;20031;-89
2021/09/07 03:07:49;;;;;;;17.30;8.48;;;;;;;;;;4977634;28;20051;-87
2021/09/07 03:10:14;;;;;;;15.63;8.18;;;;;;;;;;4999695;28;20032;-91
2021/09/07 03:12:41;;;;;;;16.30;8.23;;;;;;;;;;4973042;28;20445;-89
2021/09/07 03:15:14;;;;;;;17.10;8.45;;;;;;;;;;4974467;28;20035;-88
2021/09/07 03:17:40;;;;;;;18.33;8.05;;;;;;;;;;4970090;28;20110;-90
2021/09/07 03:20:06;;;;;;;18.63;8.82;;;;;;;;;;4973134;28;20039;-88
2021/09/07 03:22:35;;;;;;;21.23;8.85;;;;;;;;;;4970831;28;20081;-87
2021/09/07 03:25:01;;;;;;;17.92;8.00;;;;;;;;;;4951426;28;20938;-86
2021/09/07 03:27:26;;;;;;;18.05;7.75;;;;;;;;;;4938478;29;20028;-89
2021/09/07 03:29:52;;;;;;;19.00;8.52;;;;;;;;;;4969719;28;20055;-89
2021/09/07 03:32:20;;;;;;;16.67;8.38;;;;;;;;;;4984346;28;20094;-89
2021/09/07 03:34:46;;;;;;;16.52;8.00;;;;;;;;;;4965190;28;20634;-90
2021/09/07 03:37:11;;;;;;;15.98;8.10;;;;;;;;;;4922757;29;20028;-88
2021/09/07 03:39:47;;;;;;;18.02;8.40;;;;;;;;;;4937383;29;20069;-89
2021/09/07 03:42:16;;;;;;;11.07;7.25;;;;;;;;;;4950867;28;20115;-91
2021/09/07 03:44:44;;;;;;;19.80;8.23;;;;;;;;;;4953376;29;20121;-92
2021/09/07 03:47:09;;;;;;;20.77;8.48;;;;;;;;;;4966714;28;20027;-87
2021/09/07 03:49:35;;;;;;;20.48;9.52;;;;;;;;;;4966598;28;20053;-85
2021/09/07 03:52:01;;;;;;;16.05;8.18;;;;;;;;;;4967119;28;20391;-90
2021/09/07 03:54:32;;;;;;;19.30;8.25;;;;;;;;;;4982386;28;20046;-88
2021/09/07 03:56:57;;;;;;;16.98;8.55;;;;;;;;;;4966003;28;20031;-88
2021/09/07 03:59:22;;;;;;;17.92;8.57;;;;;;;;;;4953938;28;20032;-89
2021/09/07 04:01:53;;;;;;;19.02;8.25;;;;;;;;;;4979835;28;20050;-88
2021/09/07 04:04:24;;;;;;;17.60;7.78;;;;;;;;;;4948730;29;20042;-89
2021/09/07 04:06:53;;;;;;;16.25;8.05;;;;;;;;;;4951112;28;20035;-89
2021/09/07 04:09:19;;;;;;;16.50;8.25;;;;;;;;;;4967517;28;20103;-90
2021/09/07 04:11:46;;;;;;;15.25;8.60;;;;;;;;;;4977286;28;20509;-87
2021/09/07 04:14:19;;;;;;;17.60;8.98;;;;;;;;;;4957581;28;20035;-86
2021/09/07 04:16:46;;;;;;;19.40;8.10;;;;;;;;;;4984547;28;20027;-89
2021/09/07 04:19:11;;;;;;;19.42;8.65;;;;;;;;;;4991942;28;20058;-87
2021/09/07 04:22:02;;;;;;;15.65;8.05;;;;;;;;;;4968819;28;20023;-88
2021/09/07 04:24:31;;;;;;;16.27;8.05;;;;;;;;;;4954404;29;20036;-88
2021/09/07 04:27:05;;;;;;;18.63;8.43;;;;;;;;;;4987086;28;20357;-88
2021/09/07 04:29:30;;;;;;;12.95;7.40;;;;;;;;;;4993452;28;20035;-88
2021/09/07 04:31:55;;;;;;;21.60;7.63;;;;;;;;;;4956595;28;20039;-89
2021/09/07 04:34:25;;;;;;;14.38;7.80;;;;;;;;;;4942186;28;20468;-88
2021/09/07 04:36:51;;;;;;;16.77;8.18;;;;;;;;;;4967284;28;20047;-89
2021/09/07 04:39:17;;;;;;;17.02;8.80;;;;;;;;;;4948183;28;20066;-89
2021/09/07 04:41:48;;;;;;;15.63;8.55;;;;;;;;;;4952165;28;20371;-93
2021/09/07 04:44:14;;;;;;;18.80;8.48;;;;;;;;;;4969671;28;20425;-91
2021/09/07 04:46:39;;;;;;;15.38;7.10;;;;;;;;;;4949392;29;20113;-86
2021/09/07 04:49:04;;;;;;;15.52;7.65;;;;;;;;;;4950873;28;20035;-89
2021/09/07 04:51:39;;;;;;;18.60;8.02;;;;;;;;;;4976544;28;20031;-88
2021/09/07 04:54:04;;;;;;;12.95;7.68;;;;;;;;;;4950519;28;20066;-89
2021/09/07 04:56:33;;;;;;;18.92;8.35;;;;;;;;;;4951629;28;20111;-89
2021/09/07 04:58:58;;;;;;;18.05;8.43;;;;;;;;;;4963666;28;20042;-89
2021/09/07 05:01:26;;;;;;;14.63;7.85;;;;;;;;;;4935168;29;20031;-90
2021/09/07 05:03:56;;;;;;;14.02;7.95;;;;;;;;;;4934970;29;20046;-90
2021/09/07 05:06:21;;;;;;;15.40;7.95;;;;;;;;;;4981614;28;20103;-89
2021/09/07 05:08:50;;;;;;;18.30;8.20;;;;;;;;;;4967018;28;20130;-88
2021/09/07 05:11:23;;;;;;;16.08;8.70;;;;;;;;;;4967447;28;20043;-91
2021/09/07 05:13:48;;;;;;;15.43;8.73;;;;;;;;;;4979959;28;20552;-91
2021/09/07 05:16:14;;;;;;;17.20;8.32;;;;;;;;;;4950555;29;20469;-89
2021/09/07 05:18:46;;;;;;;15.63;7.75;;;;;;;;;;4967688;28;20043;-87
2021/09/07 05:21:12;;;;;;;17.75;8.60;;;;;;;;;;4951585;28;20024;-88
2021/09/07 05:23:38;;;;;;;14.23;7.75;;;;;;;;;;4980508;28;20023;-89
2021/09/07 05:26:27;;;;;;;14.77;7.25;;;;;;;;;;4951504;28;20046;-88
2021/09/07 05:28:52;;;;;;;18.02;7.57;;;;;;;;;;4963116;28;20031;-89
2021/09/07 05:31:18;;;;;;;17.13;8.07;;;;;;;;;;4967347;28;21192;-90
2021/09/07 05:33:51;;;;;;;15.88;7.45;;;;;;;;;;4953845;28;20077;-89
2021/09/07 05:36:16;;;;;;;17.75;8.27;;;;;;;;;;4971734;28;20341;-87
2021/09/07 05:38:42;;;;;;;15.23;8.48;;;;;;;;;;4975953;28;20140;-91
2021/09/07 05:41:19;;;;;;;19.15;7.57;;;;;;;;;;4938387;28;20110;-89
2021/09/07 05:43:45;;;;;;;15.27;7.53;;;;;;;;;;4972738;28;20023;-88
2021/09/07 05:46:14;;;;;;;14.30;7.43;;;;;;;;;;4949186;28;20669;-89
2021/09/07 05:48:39;;;;;;;16.30;7.78;;;;;;;;;;4980924;28;20046;-86
2021/09/07 05:51:05;;;;;;;16.48;8.27;;;;;;;;;;4970312;28;20035;-86
2021/09/07 05:53:31;;;;;;;17.05;7.45;;;;;;;;;;4939652;29;20445;-89
2021/09/07 05:56:04;;;;;;;20.15;7.93;;;;;;;;;;4970247;28;20035;-89
2021/09/07 05:58:30;;;;;;;17.75;7.68;;;;;;;;;;4958171;29;20055;-89
2021/09/07 06:04:21;;;;;;;13.73;7.75;;;;;;;;;;4897765;29;20084;-87
2021/09/07 06:06:47;;;;;;;18.50;8.13;;;;;;;;;;4928195;29;20384;-88
2021/09/07 06:09:12;;;;;;;12.20;7.35;;;;;;;;;;4976662;28;20066;-88
2021/09/07 06:11:47;;;;;;;16.38;6.28;;;;;;;;;;4959474;29;20092;-86
2021/09/07 06:14:12;;;;;;;16.10;6.80;;;;;;;;;;4987316;28;20035;-89
2021/09/07 06:16:37;;;;;;;14.63;6.95;;;;;;;;;;4938474;29;20038;-89
2021/09/07 06:19:10;;;;;;;20.17;7.25;;;;;;;;;;4958019;28;20409;-91
2021/09/07 06:21:37;;;;;;;13.38;6.68;;;;;;;;;;4957722;28;20046;-88
2021/09/07 06:24:16;;;;;;;13.82;6.63;;;;;;;;;;4960279;29;20031;-89
2021/09/07 06:26:42;;;;;;;14.45;5.82;;;;;;;;;;4988930;28;20039;-90
2021/09/07 06:29:07;;;;;;;13.40;6.43;;;;;;;;;;4993092;28;20039;-93
2021/09/07 06:31:42;;;;;;;10.82;6.13;;;;;;;;;;4956725;28;20118;-90
2021/09/07 06:34:07;;;;;;;13.00;6.35;;;;;;;;;;4976400;28;20047;-87
2021/09/07 06:36:36;;;;;;;13.93;6.90;;;;;;;;;;4976996;28;20078;-89
2021/09/07 06:39:01;;;;;;;10.82;6.20;;;;;;;;;;4943766;29;20036;-89
2021/09/07 06:41:27;;;;;;;11.77;5.85;;;;;;;;;;4974222;28;20037;-92
2021/09/07 06:43:59;;;;;;;10.23;6.15;;;;;;;;;;4957915;29;20387;-85
2021/09/07 06:46:24;;;;;;;15.80;6.22;;;;;;;;;;4956833;28;20039;-91
2021/09/07 06:48:49;;;;;;;12.38;6.15;;;;;;;;;;4977910;28;20023;-88
2021/09/07 06:51:19;;;;;;;17.13;6.78;;;;;;;;;;4994494;28;20023;-85
2021/09/07 06:53:47;;;;;;;12.45;5.65;;;;;;;;;;4991631;28;20024;-85
2021/09/07 06:56:32;;;;;;;13.38;6.25;;;;;;;;;;4948170;29;20042;-88
2021/09/07 06:58:57;;;;;;;18.58;6.72;;;;;;;;;;4964674;29;20034;-87
2021/09/07 07:01:33;;;;;;;14.73;6.30;;;;;;;;;;4955156;29;20033;-86
2021/09/07 07:03:59;;;;;;;12.48;6.10;;;;;;;;;;4970595;28;20055;-85
2021/09/07 07:06:27;;;;;;;9.90;6.03;;;;;;;;;;4974646;28;20023;-85
2021/09/07 07:09:12;;;;;;;15.68;6.10;;;;;;;;;;4997145;28;20115;-88
2021/09/07 07:11:37;;;;;;;11.63;5.60;;;;;;;;;;4960955;29;20051;-89
2021/09/07 07:14:13;;;;;;;10.70;5.55;;;;;;;;;;4973908;28;20039;-88
2021/09/07 07:16:53;;;;;;;10.40;5.93;;;;;;;;;;4971372;28;20039;-88
2021/09/07 07:19:24;;;;;;;9.90;6.07;;;;;;;;;;4988790;28;20043;-90
2021/09/07 07:21:53;;;;;;;11.93;5.70;;;;;;;;;;4975121;28;20036;-90
2021/09/07 07:24:18;;;;;;;9.95;5.28;;;;;;;;;;4956374;29;20035;-88
2021/09/07 07:26:44;;;;;;;10.40;5.60;;;;;;;;;;4958890;28;20099;-90
2021/09/07 07:29:19;;;;;;;11.25;5.82;;;;;;;;;;4973337;28;20027;-89
2021/09/07 07:31:45;;;;;;;8.75;5.43;;;;;;;;;;4973725;28;20054;-87
2021/09/07 07:34:10;;;;;;;12.73;6.32;;;;;;;;;;4956679;28;20042;-89
2021/09/07 07:36:39;;;;;;;9.05;5.10;;;;;;;;;;4958552;29;20084;-90
2021/09/07 07:39:05;;;;;;;11.43;5.85;;;;;;;;;;4971731;28;20461;-87
2021/09/07 07:41:31;;;;;;;16.73;5.78;;;;;;;;;;4958005;28;20041;-87
2021/09/07 07:43:56;;;;;;;9.05;5.40;;;;;;;;;;4951795;29;20054;-87
2021/09/07 07:46:29;;;;;;;15.25;5.32;;;;;;;;;;4958361;28;20330;-91
2021/09/07 07:48:54;;;;;;;16.38;5.60;;;;;;;;;;4987147;28;20030;-90
2021/09/07 07:51:25;;;;;;;11.27;5.88;;;;;;;;;;4969438;28;20031;-88
2021/09/07 07:53:50;;;;;;;8.85;5.53;;;;;;;;;;4969374;28;20031;-90
2021/09/07 07:56:16;;;;;;;11.48;5.55;;;;;;;;;;4954675;29;20047;-87
2021/09/07 07:58:41;;;;;;;9.35;5.45;;;;;;;;;;4952512;29;20097;-87
2021/09/07 08:01:12;;;;;;;9.68;5.35;;;;;;;;;;4938137;29;20599;-89
2021/09/07 08:03:40;;;;;;;12.23;5.22;;;;;;;;;;4949381;28;20032;-89
2021/09/07 08:06:14;;;;;;;9.98;5.30;;;;;;;;;;4953087;28;20074;-88
2021/09/07 08:08:39;;;;;;;7.53;4.90;;;;;;;;;;4967332;28;20043;-89
2021/09/07 08:11:04;;;;;;;10.73;4.55;;;;;;;;;;4948684;28;21028;-89
2021/09/07 08:13:34;;;;;;;8.40;4.88;;;;;;;;;;4952815;29;20057;-87
2021/09/07 08:16:02;;;;;;;9.10;4.70;;;;;;;;;;4950810;28;20513;-92
2021/09/07 08:18:27;;;;;;;6.65;4.28;;;;;;;;;;4968219;28;20020;-87
2021/09/07 08:20:57;;;;;;;7.82;4.68;;;;;;;;;;4952597;28;20064;-89
2021/09/07 08:23:26;;;;;;;7.65;4.88;;;;;;;;;;4967675;28;20084;-87
2021/09/07 08:25:59;;;;;;;8.52;4.75;;;;;;;;;;4938126;29;20027;-88
2021/09/07 08:28:24;;;;;;;10.68;5.20;;;;;;;;;;4921780;29;20035;-87
2021/09/07 08:30:50;;;;;;;8.68;4.63;;;;;;;;;;4924449;29;20306;-91
2021/09/07 08:33:16;;;;;;;9.45;4.32;;;;;;;;;;4938519;29;20452;-91
2021/09/07 08:35:44;;;;;;;6.20;4.18;;;;;;;;;;4982849;28;20038;-89
2021/09/07 08:38:10;;;;;;;8.15;4.40;;;;;;;;;;4951526;29;20374;-88
2021/09/07 08:40:36;;;;;;;6.90;4.57;;;;;;;;;;4969346;28;20031;-88
2021/09/07 08:43:11;;;;;;;8.75;4.53;;;;;;;;;;4966695;28;20310;-90
2021/09/07 08:45:39;;;;;;;7.05;4.38;;;;;;;;;;4970445;28;20031;-91
2021/09/07 08:48:08;;;;;;;6.13;4.10;;;;;;;;;;4968615;28;20350;-92
2021/09/07 08:50:36;;;;;;;11.75;4.93;;;;;;;;;;4981273;28;20050;-92
2021/09/07 08:53:03;;;;;;;7.15;4.05;;;;;;;;;;4951542;28;20039;-88
2021/09/07 08:55:32;;;;;;;7.72;4.70;;;;;;;;;;4965440;28;20036;-92
2021/09/07 08:57:57;;;;;;;12.60;4.75;;;;;;;;;;4939219;29;20031;-90
2021/09/07 09:00:25;;;;;;;7.68;4.53;;;;;;;;;;4954699;28;20107;-88
2021/09/07 09:03:05;;;;;;;8.48;4.47;;;;;;;;;;4934123;29;20041;-90
2021/09/07 09:05:39;;;;;;;9.15;4.60;;;;;;;;;;4965815;28;20035;-90
2021/09/07 09:08:09;;;;;;;7.60;4.72;;;;;;;;;;4952545;28;20158;-87
2021/09/07 09:10:43;;;;;;;8.05;4.95;;;;;;;;;;4969990;28;20011;-87
2021/09/07 09:13:10;;;;;;;9.00;4.80;;;;;;;;;;4966630;29;20046;-88
2021/09/07 09:16:04;;;;;;;12.25;5.38;;;;;;;;;;4968370;28;20087;-86
2021/09/07 09:18:33;;;;;;;6.82;4.28;;;;;;;;;;4995771;28;20031;-90
2021/09/07 09:21:22;;;;;;;7.90;4.78;;;;;;;;;;4956076;28;20114;-88
2021/09/07 09:24:08;;;;;;;6.72;4.72;;;;;;;;;;4959623;28;20166;-89
2021/09/07 09:26:54;;;;;;;7.07;4.60;;;;;;;;;;4958358;28;20027;-90
2021/09/07 09:29:50;;;;;;;8.10;5.10;;;;;;;;;;4961496;28;20043;-88
2021/09/07 09:32:18;;;;;;;6.20;4.25;;;;;;;;;;4951511;29;20457;-89
2021/09/07 09:35:00;;;;;;;5.70;4.35;;;;;;;;;;4945243;29;20039;-90
2021/09/07 09:37:28;;;;;;;8.85;4.47;;;;;;;;;;4971828;28;20046;-89
2021/09/07 09:39:53;;;;;;;8.13;4.20;;;;;;;;;;4957308;29;20031;-87
2021/09/07 09:42:26;;;;;;;7.93;3.90;;;;;;;;;;4963225;28;20073;-86
2021/09/07 09:45:01;;;;;;;10.20;4.35;;;;;;;;;;4966279;28;20061;-89
2021/09/07 09:47:34;;;;;;;9.48;4.72;;;;;;;;;;4974516;28;20110;-90
2021/09/07 09:49:59;;;;;;;7.97;4.22;;;;;;;;;;4972223;28;20066;-90
2021/09/07 09:52:26;;;;;;;8.82;4.72;;;;;;;;;;4984005;28;20051;-92
2021/09/07 09:55:00;;;;;;;6.13;4.32;;;;;;;;;;4954772;28;20043;-91
2021/09/07 09:57:26;;;;;;;8.20;4.07;;;;;;;;;;4966551;28;20364;-92
2021/09/07 10:00:01;;;;;;;8.90;4.72;;;;;;;;;;4967717;28;20122;-90
2021/09/07 10:02:32;;;;;;;7.93;4.05;;;;;;;;;;4954962;28;20477;-87
2021/09/07 10:05:01;;;;;;;4.95;3.88;;;;;;;;;;4983380;28;20546;-87
2021/09/07 10:07:27;;;;;;;7.68;4.35;;;;;;;;;;4939546;29;20031;-89
2021/09/07 10:09:54;;;;;;;7.72;4.28;;;;;;;;;;4987982;28;20105;-90
2021/09/07 10:12:22;;;;;;;6.25;4.57;;;;;;;;;;4955833;28;20035;-88
2021/09/07 10:15:00;;;;;;;8.20;4.55;;;;;;;;;;4969771;28;20038;-89
2021/09/07 10:17:49;;;;;;;11.05;4.30;;;;;;;;;;4952698;29;20046;-90
2021/09/07 10:20:36;;;;;;;7.38;4.32;;;;;;;;;;4947888;29;20039;-88
2021/09/07 10:25:49;;;;;;;6.18;4.65;;;;;;;;;;4954303;29;20039;-86
2021/09/07 10:28:49;;;;;;;7.93;4.70;;;;;;;;;;4952957;28;20024;-90
2021/09/07 10:31:23;;;;;;;6.45;4.43;;;;;;;;;;4942942;29;20039;-88
2021/09/07 10:33:54;;;;;;;6.70;4.55;;;;;;;;;;4923583;29;20268;-89
2021/09/07 10:36:24;;;;;;;7.25;4.20;;;;;;;;;;4968131;28;20033;-89
2021/09/07 10:38:53;;;;;;;11.05;4.93;;;;;;;;;;4973404;28;20019;-90
2021/09/07 10:41:38;;;;;;;13.07;4.72;;;;;;;;;;4955511;29;20062;-89
2021/09/07 10:44:07;;;;;;;7.28;4.50;;;;;;;;;;4980798;28;20027;-91
2021/09/07 10:46:59;;;;;;;7.82;4.63;;;;;;;;;;4969511;28;20114;-91
2021/09/07 10:49:41;;;;;;;6.78;4.68;;;;;;;;;;4951245;28;20038;-88
2021/09/07 10:52:09;;;;;;;8.98;4.93;;;;;;;;;;4951254;28;20045;-89
2021/09/07 10:54:44;;;;;;;5.95;4.10;;;;;;;;;;4968486;28;20035;-89
2021/09/07 10:57:09;;;;;;;9.00;4.63;;;;;;;;;;4981791;28;20039;-90
2021/09/07 10:59:50;;;;;;;4.90;4.32;;;;;;;;;;4954124;28;20153;-89
2021/09/07 11:02:36;;;;;;;7.18;4.28;;;;;;;;;;4980287;28;20029;-86
2021/09/07 11:05:04;;;;;;;8.88;3.70;;;;;;;;;;4962796;28;20129;-89
2021/09/07 11:07:32;;;;;;;6.15;4.28;;;;;;;;;;4929017;29;20538;-92
2021/09/07 11:09:58;;;;;;;7.85;4.57;;;;;;;;;;4952427;29;20063;-91
2021/09/07 11:12:28;;;;;;;8.95;4.45;;;;;;;;;;4969170;28;20977;-90
2021/09/07 11:15:08;;;;;;;9.07;5.05;;;;;;;;;;4987150;28;20058;-91
2021/09/07 11:17:36;;;;;;;6.32;4.10;;;;;;;;;;4984029;28;20057;-88
2021/09/07 11:23:23;;;;;;;9.18;4.25;;;;;;;;;;4954591;29;20042;-91
2021/09/07 11:26:04;;;;;;;6.55;4.30;;;;;;;;;;4985985;28;20046;-92
2021/09/07 11:28:40;;;;;;;6.57;4.97;;;;;;;;;;4969498;28;20032;-90
2021/09/07 11:31:07;;;;;;;6.80;5.30;;;;;;;;;;4999325;28;20031;-90
2021/09/07 11:33:37;;;;;;;6.50;4.22;;;;;;;;;;4968410;28;20036;-89
2021/09/07 11:36:04;;;;;;;5.90;4.60;;;;;;;;;;5000380;28;20102;-87
2021/09/07 11:38:31;;;;;;;7.50;5.07;;;;;;;;;;4973377;28;20031;-88
2021/09/07 11:40:59;;;;;;;11.85;5.38;;;;;;;;;;4973053;28;20045;-89
2021/09/07 11:43:32;;;;;;;9.00;3.95;;;;;;;;;;4976989;28;20469;-90
2021/09/07 11:46:19;;;;;;;9.18;4.90;;;;;;;;;;4961277;28;20027;-90
2021/09/07 11:49:07;;;;;;;6.38;4.30;;;;;;;;;;4995349;28;20027;-92
2021/09/07 11:51:35;;;;;;;7.63;4.78;;;;;;;;;;4981167;28;20023;-91
2021/09/07 11:54:19;;;;;;;6.72;4.57;;;;;;;;;;4969297;28;20035;-89
2021/09/07 11:56:57;;;;;;;5.70;4.18;;;;;;;;;;4953626;28;20031;-90
2021/09/07 11:59:31;;;;;;;5.85;4.88;;;;;;;;;;4952831;28;20054;-90
2021/09/07 12:01:58;;;;;;;6.65;4.45;;;;;;;;;;4981804;28;20023;-91
2021/09/07 12:04:32;;;;;;;6.75;4.38;;;;;;;;;;4969515;28;20027;-90
2021/09/07 12:07:04;;;;;;;11.10;5.15;;;;;;;;;;4941173;29;21715;-88
2021/09/07 12:09:41;;;;;;;7.65;4.72;;;;;;;;;;4942398;29;20055;-92
2021/09/07 12:12:13;;;;;;;8.68;4.55;;;;;;;;;;4953396;29;20118;-90
2021/09/07 12:14:40;;;;;;;6.78;4.63;;;;;;;;;;4953160;28;20560;-88
2021/09/07 12:17:16;;;;;;;8.20;4.47;;;;;;;;;;4938361;29;20035;-89
2021/09/07 12:19:49;;;;;;;7.93;5.10;;;;;;;;;;4966599;28;20102;-89
2021/09/07 12:22:24;;;;;;;6.70;5.40;;;;;;;;;;4944932;29;20035;-90
2021/09/07 12:24:59;;;;;;;10.13;5.00;;;;;;;;;;4962177;28;20027;-88
2021/09/07 12:27:25;;;;;;;5.00;3.85;;;;;;;;;;4956829;28;20044;-90
2021/09/07 12:30:04;;;;;;;6.43;4.18;;;;;;;;;;4962251;28;20094;-88
2021/09/07 12:32:29;;;;;;;7.50;4.65;;;;;;;;;;4950587;28;20064;-92
2021/09/07 12:34:55;;;;;;;10.77;4.95;;;;;;;;;;4970947;28;20480;-90
2021/09/07 12:37:29;;;;;;;10.95;4.55;;;;;;;;;;4953722;29;20031;-89
2021/09/07 12:39:56;;;;;;;6.95;4.15;;;;;;;;;;4951482;28;20035;-92
2021/09/07 12:42:23;;;;;;;5.75;3.95;;;;;;;;;;4965672;28;20633;-91
2021/09/07 12:44:49;;;;;;;7.82;4.15;;;;;;;;;;4981788;28;20035;-90
2021/09/07 12:47:15;;;;;;;5.38;4.25;;;;;;;;;;4953920;28;20058;-93
2021/09/07 12:49:41;;;;;;;9.23;4.53;;;;;;;;;;4975466;28;20429;-90
2021/09/07 12:52:13;;;;;;;;;;;;;;;;;;4987172;28;20520;-90
2021/09/07 12:54:39;;;;;;;9.60;5.03;;;;;;;;;;4937104;29;19942;-88
2021/09/07 12:57:15;;;;;;;5.13;4.10;;;;;;;;;;4960948;28;20053;-88
2021/09/07 12:59:40;;;;;;;7.57;4.45;;;;;;;;;;4960652;28;20031;-89
2021/09/07 13:02:06;;;;;;;5.40;4.65;;;;;;;;;;4967377;28;20123;-86
2021/09/07 13:04:34;;;;;;;8.32;4.13;;;;;;;;;;4980699;28;20433;-87
2021/09/07 13:07:00;;;;;;;9.63;5.55;;;;;;;;;;4945094;29;20032;-89
2021/09/07 13:09:29;;;;;;;9.35;5.15;;;;;;;;;;4951505;28;20397;-91
2021/09/07 13:11:57;;;;;;;6.97;5.45;;;;;;;;;;4947763;29;20038;-91
2021/09/07 13:14:22;;;;;;;7.32;4.80;;;;;;;;;;4964473;29;20038;-92
2021/09/07 13:16:48;;;;;;;8.00;5.22;;;;;;;;;;4996150;28;20043;-86
2021/09/07 13:19:21;;;;;;;8.02;5.57;;;;;;;;;;4962292;29;20058;-87
2021/09/07 13:21:47;;;;;;;7.65;4.78;;;;;;;;;;4959027;28;20036;-89
2021/09/07 13:24:13;;;;;;;7.13;4.85;;;;;;;;;;4957514;28;20027;-88
2021/09/07 13:26:47;;;;;;;8.38;4.32;;;;;;;;;;4974649;28;20066;-88
2021/09/07 13:29:13;;;;;;;8.98;4.25;;;;;;;;;;4968521;28;20015;-88
2021/09/07 13:31:44;;;;;;;6.82;4.78;;;;;;;;;;4985240;28;20033;-90
2021/09/07 13:34:13;;;;;;;11.10;4.53;;;;;;;;;;4946576;29;20051;-88
2021/09/07 13:36:49;;;;;;;5.32;4.55;;;;;;;;;;4973713;28;20023;-90
2021/09/07 13:39:14;;;;;;;7.28;4.63;;;;;;;;;;4988948;28;20027;-91
2021/09/07 13:41:40;;;;;;;5.93;4.13;;;;;;;;;;4991939;28;20032;-89
2021/09/07 13:44:13;;;;;;;8.80;4.70;;;;;;;;;;4980779;28;20038;-88
2021/09/07 13:46:39;;;;;;;7.55;4.57;;;;;;;;;;4960417;29;20051;-89
2021/09/07 13:49:04;;;;;;;6.30;4.63;;;;;;;;;;4976476;28;20028;-90
2021/09/07 13:51:32;;;;;;;7.38;4.20;;;;;;;;;;4975309;28;20105;-88
2021/09/07 13:53:58;;;;;;;9.35;4.38;;;;;;;;;;4972618;28;20065;-89
2021/09/07 13:56:24;;;;;;;7.60;4.30;;;;;;;;;;4988803;28;20031;-87
2021/09/07 13:58:49;;;;;;;8.68;4.70;;;;;;;;;;4970439;28;20027;-91
2021/09/07 14:01:20;;;;;;;6.38;4.40;;;;;;;;;;4964247;28;20086;-89
2021/09/07 14:04:02;;;;;;;;;;;;;;;;;;;;;
2021/09/07 14:06:31;;;;;;;8.48;4.68;;;;;;;;;;4986690;28;20097;-90
2021/09/07 14:09:00;;;;;;;7.85;4.72;;;;;;;;;;4952627;29;20641;-89
2021/09/07 14:11:25;;;;;;;8.80;5.25;;;;;;;;;;4972602;28;20040;-90
2021/09/07 14:13:51;;;;;;;7.22;4.75;;;;;;;;;;4942456;29;20311;-89
2021/09/07 14:16:22;;;;;;;9.82;4.32;;;;;;;;;;4940846;29;20477;-91
2021/09/07 14:18:51;;;;;;;7.03;4.53;;;;;;;;;;4989061;28;20027;-89
2021/09/07 14:21:17;;;;;;;6.35;4.75;;;;;;;;;;4987887;28;20360;-90
2021/09/07 14:23:45;;;;;;;6.63;4.38;;;;;;;;;;4973084;28;20055;-89
2021/09/07 14:26:11;;;;;;;6.35;4.75;;;;;;;;;;4924100;29;20102;-86
2021/09/07 14:28:40;;;;;;;7.32;4.15;;;;;;;;;;4970572;28;20050;-91
2021/09/07 14:31:08;;;;;;;11.40;5.07;;;;;;;;;;4990295;28;20043;-90
2021/09/07 14:33:34;;;;;;;6.07;3.60;;;;;;;;;;4962396;29;20059;-88
2021/09/07 14:36:02;;;;;;;7.38;4.35;;;;;;;;;;4947704;29;20027;-90
2021/09/07 14:38:31;;;;;;;8.00;4.88;;;;;;;;;;4961638;28;20023;-87
2021/09/07 14:41:00;;;;;;;6.82;4.55;;;;;;;;;;4986109;28;20345;-89
2021/09/07 14:43:25;;;;;;;9.68;4.82;;;;;;;;;;4978225;28;20115;-87
2021/09/07 14:45:55;;;;;;;8.30;4.57;;;;;;;;;;4965389;28;20036;-88
2021/09/07 14:48:22;;;;;;;7.45;4.22;;;;;;;;;;4967338;28;20023;-86
2021/09/07 14:50:47;;;;;;;6.32;4.57;;;;;;;;;;4965255;29;20026;-87
2021/09/07 14:53:21;;;;;;;8.90;4.60;;;;;;;;;;4991975;28;20106;-88
2021/09/07 14:55:47;;;;;;;9.85;4.57;;;;;;;;;;4964737;29;20069;-89
2021/09/07 14:58:12;;;;;;;12.35;4.68;;;;;;;;;;4988823;28;20592;-89
2021/09/07 15:00:41;;;;;;;10.20;5.13;;;;;;;;;;4941044;29;20102;-89
2021/09/07 15:03:07;;;;;;;7.07;4.68;;;;;;;;;;4989920;28;20102;-89